Map

Track Data

SID SEASON NUMBER BASIN SUBBASIN NAME ISO_TIME NATURE LAT LON WMO_WIND WMO_PRES WMO_AGENCY TRACK_TYPE DIST2LAND LANDFALL IFLAG USA_AGENCY USA_ATCF_ID USA_LAT USA_LON USA_RECORD USA_STATUS USA_WIND USA_PRES USA_SSHS USA_R34_NE USA_R34_SE USA_R34_SW USA_R34_NW USA_R50_NE USA_R50_SE USA_R50_SW USA_R50_NW USA_R64_NE USA_R64_SE USA_R64_SW USA_R64_NW USA_POCI USA_ROCI USA_RMW USA_EYE TOKYO_LAT TOKYO_LON TOKYO_GRADE TOKYO_WIND TOKYO_PRES TOKYO_R50_DIR TOKYO_R50_LONG TOKYO_R50_SHORT TOKYO_R30_DIR TOKYO_R30_LONG TOKYO_R30_SHORT TOKYO_LAND CMA_LAT CMA_LON CMA_CAT CMA_WIND CMA_PRES HKO_LAT HKO_LON HKO_CAT HKO_WIND HKO_PRES NEWDELHI_LAT NEWDELHI_LON NEWDELHI_GRADE NEWDELHI_WIND NEWDELHI_PRES NEWDELHI_CI NEWDELHI_DP NEWDELHI_POCI REUNION_LAT REUNION_LON REUNION_TYPE REUNION_WIND REUNION_PRES REUNION_TNUM REUNION_CI REUNION_RMW REUNION_R34_NE REUNION_R34_SE REUNION_R34_SW REUNION_R34_NW REUNION_R50_NE REUNION_R50_SE REUNION_R50_SW REUNION_R50_NW REUNION_R64_NE REUNION_R64_SE REUNION_R64_SW REUNION_R64_NW BOM_LAT BOM_LON BOM_TYPE BOM_WIND BOM_PRES BOM_TNUM BOM_CI BOM_RMW BOM_R34_NE BOM_R34_SE BOM_R34_SW BOM_R34_NW BOM_R50_NE BOM_R50_SE BOM_R50_SW BOM_R50_NW BOM_R64_NE BOM_R64_SE BOM_R64_SW BOM_R64_NW BOM_ROCI BOM_POCI BOM_EYE BOM_POS_METHOD BOM_PRES_METHOD NADI_LAT NADI_LON NADI_CAT NADI_WIND NADI_PRES WELLINGTON_LAT WELLINGTON_LON WELLINGTON_WIND WELLINGTON_PRES DS824_LAT DS824_LON DS824_STAGE DS824_WIND DS824_PRES TD9636_LAT TD9636_LON TD9636_STAGE TD9636_WIND TD9636_PRES TD9635_LAT TD9635_LON TD9635_WIND TD9635_PRES TD9635_ROCI NEUMANN_LAT NEUMANN_LON NEUMANN_CLASS NEUMANN_WIND NEUMANN_PRES MLC_LAT MLC_LON MLC_CLASS MLC_WIND MLC_PRES USA_GUST BOM_GUST BOM_GUST_PER REUNION_GUST REUNION_GUST_PER USA_SEAHGT USA_SEARAD_NE USA_SEARAD_SE USA_SEARAD_SW USA_SEARAD_NW STORM_SPEED STORM_DIR
1871228N31312 1871 16 NA NA NOT_NAMED 1871-08-16 00:00:00 TS 31.3000 -47.7000 main 1766 1751 _____________O -1 31.3000 -47.7000 TS 35 5 294
1871228N31312 1871 16 NA NA NOT_NAMED 1871-08-16 03:00:00 TS 31.4002 -47.9624 main 1749 1734 _____________P -1 31.4002 -47.9624 TS 35 5 295
1871228N31312 1871 16 NA NA NOT_NAMED 1871-08-16 06:00:00 TS 31.5000 -48.2000 main 1734 1719 _____________O -1 31.5000 -48.2000 TS 35 4 298
1871228N31312 1871 16 NA NA NOT_NAMED 1871-08-16 09:00:00 TS 31.5999 -48.4001 main 1719 1704 _____________P -1 31.5999 -48.4001 TS 35 4 300
1871228N31312 1871 16 NA NA NOT_NAMED 1871-08-16 12:00:00 TS 31.7000 -48.6000 main 1704 1689 _____________O -1 31.7000 -48.6000 TS 35 4 299
1871228N31312 1871 16 NA NA NOT_NAMED 1871-08-16 15:00:00 TS 31.8075 -48.8425 main 1689 1673 _____________P -1 31.8075 -48.8425 TS 35 5 295
1871228N31312 1871 16 NA NA NOT_NAMED 1871-08-16 18:00:00 TS 31.9000 -49.1000 main 1673 1669 _____________O -1 31.9000 -49.1000 TS 35 5 288
1871228N31312 1871 16 NA NA NOT_NAMED 1871-08-16 21:00:00 TS 31.9500 -49.3501 main 1667 1653 _____________P -1 31.9500 -49.3501 TS 37 4 283
1871228N31312 1871 16 NA NA NOT_NAMED 1871-08-17 00:00:00 TS 32.0000 -49.6000 main 1653 1639 _____________O -1 32.0000 -49.6000 TS 40 5 288
1871228N31312 1871 16 NA NA NOT_NAMED 1871-08-17 03:00:00 TS 32.0925 -49.8575 main 1638 1624 _____________P -1 32.0925 -49.8575 TS 40 5 295
1871228N31312 1871 16 NA NA NOT_NAMED 1871-08-17 06:00:00 TS 32.2000 -50.1000 main 1624 1610 _____________O -1 32.2000 -50.1000 TS 40 4 299
1871228N31312 1871 16 NA NA NOT_NAMED 1871-08-17 09:00:00 TS 32.2999 -50.3001 main 1610 1597 _____________P -1 32.2999 -50.3001 TS 40 4 301
1871228N31312 1871 16 NA NA NOT_NAMED 1871-08-17 12:00:00 TS 32.4000 -50.5000 main 1597 1583 _____________O -1 32.4000 -50.5000 TS 40 4 298
1871228N31312 1871 16 NA NA NOT_NAMED 1871-08-17 15:00:00 TS 32.5000 -50.7425 main 1583 1569 _____________P -1 32.5000 -50.7425 TS 40 5 295
1871228N31312 1871 16 NA NA NOT_NAMED 1871-08-17 18:00:00 TS 32.6000 -51.0000 main 1569 1556 _____________O -1 32.6000 -51.0000 TS 40 5 294
1871228N31312 1871 16 NA NA NOT_NAMED 1871-08-17 21:00:00 TS 32.6848 -51.2353 main 1556 1542 _____________P -1 32.6848 -51.2353 TS 42 5 295
1871228N31312 1871 16 NA NA NOT_NAMED 1871-08-18 00:00:00 TS 32.8000 -51.5000 main 1542 1518 _____________O -1 32.8000 -51.5000 TS 45 6 300
1871228N31312 1871 16 NA NA NOT_NAMED 1871-08-18 03:00:00 TS 32.9851 -51.8424 main 1518 1493 _____________P -1 32.9851 -51.8424 TS 45 7 304
1871228N31312 1871 16 NA NA NOT_NAMED 1871-08-18 06:00:00 TS 33.2000 -52.2000 main 1493 1470 _____________O -1 33.2000 -52.2000 TS 45 7 307
1871228N31312 1871 16 NA NA NOT_NAMED 1871-08-18 09:00:00 TS 33.3999 -52.5077 main 1470 1447 _____________P -1 33.3999 -52.5077 TS 45 6 309
1871228N31312 1871 16 NA NA NOT_NAMED 1871-08-18 12:00:00 TS 33.6000 -52.8000 main 1447 1424 _____________O -1 33.6000 -52.8000 TS 45 6 310
1871228N31312 1871 16 NA NA NOT_NAMED 1871-08-18 15:00:00 TS 33.8074 -53.1001 main 1424 1402 _____________P -1 33.8074 -53.1001 TS 45 6 309
1871228N31312 1871 16 NA NA NOT_NAMED 1871-08-18 18:00:00 TS 34.0000 -53.4000 main 1402 1389 _____________O -1 34.0000 -53.4000 TS 45 5 304
1871228N31312 1871 16 NA NA NOT_NAMED 1871-08-18 21:00:00 TS 34.1119 -53.6489 main 1389 1354 _____________P -1 34.1119 -53.6489 TS 42 6 301
1871228N31312 1871 16 NA NA NOT_NAMED 1871-08-19 00:00:00 TS 34.3000 -54.0000 main 1354 1291 _____________O -1 34.3000 -54.0000 TS 40 10 307
1871228N31312 1871 16 NA NA NOT_NAMED 1871-08-19 03:00:00 TS 34.7130 -54.6039 main 1291 1215 _____________P -1 34.7130 -54.6039 TS 40 14 310
1871228N31312 1871 16 NA NA NOT_NAMED 1871-08-19 06:00:00 TS 35.2000 -55.3000 main 1215 1154 _____________O -1 35.2000 -55.3000 TS 40 14 310
1871228N31312 1871 16 NA NA NOT_NAMED 1871-08-19 09:00:00 TS 35.6250 -55.9274 main 1154 1093 _____________P -1 35.6250 -55.9274 TS 37 13 309
1871228N31312 1871 16 NA NA NOT_NAMED 1871-08-19 12:00:00 TS 36.0000 -56.5000 main 1093 _____________O -1 36.0000 -56.5000 TS 35 12 309

About IBTrACS Database

This database is a web-friendly format of International Best Track Archive for Climate Stewardship (IBTrACS), a global best track data archive curated by NOAA dating back to 1842.

Updated: 2021-10-19